CheckWX is a tool to help pilots better visualize weather data.  It is not intended as a substitute for an official pre-flight weather briefing.

18:02:14 UTC

KCCR METAR
Buchanan Field Airport
Concord, California, USA
Current

9 mins ago

KCCR 171753Z 32007KT 10SM SCT025 BKN120 09/02 A3005 RMK AO2 SLP161 60000 T00890022 10089 20067 51013
Observed
Feb-17 @ 17:53 UTC
Wind
  • 320° at 7 KTS
Visibility
10 SM
Flight Rules
VFR
Cloud Levels
  • Scattered at 2,500' AGL
  • Broken at 12,000' AGL
Temperature
C / 48°F
Dewpoint
C / 36°F
Humidity
62%
Altimeter
30.05" Hg
Pressure
1016.1 hPa
Previous

1 hour ago

KCCR 171653Z 32009KT 10SM SCT025 08/02 A3005 RMK AO2 SLP160 T00780022
Observed
Feb-17 @ 16:53 UTC
Wind
  • 320° at 9 KTS
Visibility
10 SM
Flight Rules
VFR
Cloud Levels
  • Scattered at 2,500' AGL
Temperature
C / 46°F
Dewpoint
C / 36°F
Humidity
66%
Altimeter
30.05" Hg
Pressure
1016 hPa
Previous

2 hours ago

KCCR 171617Z 32010KT 10SM SCT022 07/02 A3004 RMK AO2 T00720022
Observed
Feb-17 @ 16:17 UTC
Wind
  • 320° at 10 KTS
Visibility
10 SM
Flight Rules
VFR
Cloud Levels
  • Scattered at 2,200' AGL
Temperature
C / 45°F
Dewpoint
C / 36°F
Humidity
71%
Altimeter
30.04" Hg
Pressure
1017.32 hPa